Toksook Bay Airport

About
Name: Toksook Bay Airport
Identifier:  OOK/PAOO
Serves:  Toksook Bay, Alaska
Owner:  State of Alaska DOT&PF - Central Region
Public/Private:  Public
Local Time:  22. Aug 21:09 AKDT
Description: Toksook Bay Airport is a state-owned public-use airport located one nautical mile east of the central business district of Toksook Bay,[1] a city in the Bethel Census Area of the U.S. state of Alaska.
Source: Wikipedia
Location
Toksook Bay
  United States

Runways
Identifier Length (m/ft) Surface
16/34 3,218/3,218 Gravel
Flights per Day
3 flights
Distance: 68km (42mi)
Punctuality
69% (1 flights per day delayed)
Delay Average: 133 minutes
Current Weather
 14 C (Humidity: 82%)
  11kt (20km/h / 12mph) from 300°
  16km (10 mi.)
 
 METAR PAOO 230456Z AUTO 30011KT 10SM CLR 14/11 A2972 RMK AO2 SLP074 T01390111

Current Flights

Departures
Number Departure To Airline
Arrivals
Number Arrival From Airline
 GV261 09:30  Bethel Grant Aviation

Current Delays

Departures
N/A
Arrivals
N/A

Destinations

Top Destinations
Airport Flights
per week
Seats
per week
  Bethel (BET) 0 - 0 0

Airlines & Planes

Top Airlines
Airline Flights
per Day
Seats
per Day
SkyBus International Airlines 0 -
Top Plane Types
Model Flights Seats
Cessna C208 0.0/day - 0